Terminal Aerodrome Forecast
Issued by NWS

Home | Current Version | Previous Version | Text Only | Print | Product List | Glossary On
Versions: 1 2 3 4 5 6 7 8 9 10 11 12 13 14 15 16 17 18
000
FTUS41 KPBZ 251922 AAA
TAFDUJ
TAF AMD
KDUJ 251922Z 2519/2618 30010KT P6SM BKN035
     FM252100 02010KT P6SM SCT025 OVC035
      TEMPO 2521/2524 BKN025
     FM260000 VRB04KT P6SM BKN050
     FM261000 11009KT P6SM OVC025
     FM261400 13010KT P6SM VCSH OVC015=

USA.gov is the U.S. government's official web portal to all federal, state and local government web resources and services.